KOVE/OVE METAR and TAF weather

Enter ICAO airport designator
Station Type Date Time Source
KOVE METAR 2019/06/26 17:53 UTC NOAA

KOVE 261753Z AUTO 16014KT 10SM CLR 24/08 A2990 RMK AO2 SLP126 T02440083 10250 20167 51009


Station Type Date Time Source
KOVE Decoded METAR 2019/06/26 17:53 UTC NOAA

OROVILLE MUNICIPAL AIRPORT, CA, United States (KOVE) 39-30N 121-37W 58M
Jun 26, 2019 - 01:53 PM EDT / 2019.06.26 1753 UTC
Wind: from the SSE (160 degrees) at 16 MPH (14 KT):0
Visibility: 10 mile(s):0
Sky conditions: clear
Temperature: 75.9 F (24.4 C)
Dew Point: 46.9 F (8.3 C)
Relative Humidity: 35%
Pressure (altimeter): 29.9 in. Hg (1012 hPa)
Pressure tendency: 0.03 inches (0.9 hPa) higher than three hours ago
ob: KOVE 261753Z AUTO 16014KT 10SM CLR 24/08 A2990 RMK AO2 SLP126 T02440083 10250 20167 51009
cycle: 18

Station Type Date Time Source
KOVE TAF UTC NOAA

Error!

Example: see airport list